sensor_id;sensor_type;location;lat;lon;timestamp;pressure;altitude;pressure_sealevel;temperature;humidity
81913;BME280;71377;50.698;7.164;2023-07-24T00:01:14;100057.78;;;19.20;75.97
81913;BME280;71377;50.698;7.164;2023-07-24T00:03:41;100058.72;;;19.19;75.75
81913;BME280;71377;50.698;7.164;2023-07-24T00:06:08;100067.09;;;19.15;75.90
81913;BME280;71377;50.698;7.164;2023-07-24T00:08:34;100058.63;;;19.21;76.00
81913;BME280;71377;50.698;7.164;2023-07-24T00:11:00;100056.69;;;19.23;76.07
81913;BME280;71377;50.698;7.164;2023-07-24T00:13:29;100063.44;;;19.27;75.93
81913;BME280;71377;50.698;7.164;2023-07-24T00:15:56;100052.78;;;19.27;75.77
81913;BME280;71377;50.698;7.164;2023-07-24T00:18:23;100054.38;;;19.30;75.94
81913;BME280;71377;50.698;7.164;2023-07-24T00:20:49;100051.22;;;19.25;75.97
81913;BME280;71377;50.698;7.164;2023-07-24T00:23:16;100048.97;;;19.20;75.71
81913;BME280;71377;50.698;7.164;2023-07-24T00:25:42;100043.50;;;19.22;76.03
81913;BME280;71377;50.698;7.164;2023-07-24T00:28:09;100035.63;;;19.31;75.94
81913;BME280;71377;50.698;7.164;2023-07-24T00:30:35;100040.84;;;19.22;75.98
81913;BME280;71377;50.698;7.164;2023-07-24T00:33:02;100032.97;;;19.20;75.99
81913;BME280;71377;50.698;7.164;2023-07-24T00:35:28;100023.41;;;19.29;75.98
81913;BME280;71377;50.698;7.164;2023-07-24T00:37:55;100022.91;;;19.24;75.71
81913;BME280;71377;50.698;7.164;2023-07-24T00:40:21;100030.78;;;19.25;75.87
81913;BME280;71377;50.698;7.164;2023-07-24T00:42:48;100027.59;;;19.42;76.02
81913;BME280;71377;50.698;7.164;2023-07-24T00:45:15;100029.44;;;19.31;75.75
81913;BME280;71377;50.698;7.164;2023-07-24T00:47:42;100030.41;;;19.30;75.72
81913;BME280;71377;50.698;7.164;2023-07-24T00:50:10;100034.16;;;19.27;75.73
81913;BME280;71377;50.698;7.164;2023-07-24T00:52:37;100034.16;;;19.27;75.67
81913;BME280;71377;50.698;7.164;2023-07-24T00:55:05;100022.88;;;19.35;75.89
81913;BME280;71377;50.698;7.164;2023-07-24T00:57:32;100033.06;;;19.30;75.57
81913;BME280;71377;50.698;7.164;2023-07-24T00:59:59;100027.28;;;19.25;75.80
81913;BME280;71377;50.698;7.164;2023-07-24T01:02:26;100023.88;;;19.23;75.85
81913;BME280;71377;50.698;7.164;2023-07-24T01:04:53;100024.47;;;19.26;75.89
81913;BME280;71377;50.698;7.164;2023-07-24T01:07:20;100014.66;;;19.27;75.95
81913;BME280;71377;50.698;7.164;2023-07-24T01:09:46;100000.78;;;19.23;75.92
81913;BME280;71377;50.698;7.164;2023-07-24T01:12:20;99999.66;;;19.26;75.98
81913;BME280;71377;50.698;7.164;2023-07-24T01:15:07;99992.91;;;19.22;75.88
81913;BME280;71377;50.698;7.164;2023-07-24T01:17:39;99994.69;;;19.32;75.92
81913;BME280;71377;50.698;7.164;2023-07-24T01:20:11;99989.84;;;19.26;75.82
81913;BME280;71377;50.698;7.164;2023-07-24T01:22:39;99984.41;;;19.28;75.74
81913;BME280;71377;50.698;7.164;2023-07-24T01:25:27;99984.88;;;19.33;76.13
81913;BME280;71377;50.698;7.164;2023-07-24T01:27:55;99987.91;;;19.28;75.91
81913;BME280;71377;50.698;7.164;2023-07-24T01:30:21;99983.56;;;19.27;75.88
81913;BME280;71377;50.698;7.164;2023-07-24T01:32:48;99970.84;;;19.31;75.85
81913;BME280;71377;50.698;7.164;2023-07-24T01:35:15;99966.25;;;19.33;76.02
81913;BME280;71377;50.698;7.164;2023-07-24T01:37:43;99957.81;;;19.48;75.76
81913;BME280;71377;50.698;7.164;2023-07-24T01:40:11;99957.56;;;19.52;75.53
81913;BME280;71377;50.698;7.164;2023-07-24T01:42:39;99961.56;;;19.57;75.57
81913;BME280;71377;50.698;7.164;2023-07-24T01:45:06;99965.09;;;19.58;75.66
81913;BME280;71377;50.698;7.164;2023-07-24T01:47:32;99963.72;;;19.52;75.86
81913;BME280;71377;50.698;7.164;2023-07-24T01:49:59;99964.09;;;19.59;76.01
81913;BME280;71377;50.698;7.164;2023-07-24T01:52:26;99964.09;;;19.59;76.20
81913;BME280;71377;50.698;7.164;2023-07-24T01:54:52;99967.75;;;19.58;75.91
81913;BME280;71377;50.698;7.164;2023-07-24T01:57:19;99978.88;;;19.52;75.81
81913;BME280;71377;50.698;7.164;2023-07-24T01:59:45;99969.19;;;19.51;75.85
81913;BME280;71377;50.698;7.164;2023-07-24T02:02:11;99974.31;;;19.42;75.81
81913;BME280;71377;50.698;7.164;2023-07-24T02:04:38;99973.59;;;19.40;75.71
81913;BME280;71377;50.698;7.164;2023-07-24T02:07:04;99969.59;;;19.46;75.57
81913;BME280;71377;50.698;7.164;2023-07-24T02:09:31;99969.59;;;19.46;75.72
81913;BME280;71377;50.698;7.164;2023-07-24T02:11:57;99962.88;;;19.52;75.64
81913;BME280;71377;50.698;7.164;2023-07-24T02:14:24;99971.56;;;19.33;75.94
81913;BME280;71377;50.698;7.164;2023-07-24T02:16:50;99960.44;;;19.28;75.78
81913;BME280;71377;50.698;7.164;2023-07-24T02:19:17;99955.09;;;19.28;76.15
81913;BME280;71377;50.698;7.164;2023-07-24T02:21:43;99952.34;;;19.29;75.85
81913;BME280;71377;50.698;7.164;2023-07-24T02:24:09;99966.41;;;19.20;75.73
81913;BME280;71377;50.698;7.164;2023-07-24T02:26:36;99964.13;;;19.15;76.07
81913;BME280;71377;50.698;7.164;2023-07-24T02:29:02;99967.38;;;19.19;76.30
81913;BME280;71377;50.698;7.164;2023-07-24T02:31:29;99966.59;;;19.39;76.18
81913;BME280;71377;50.698;7.164;2023-07-24T02:33:55;99957.94;;;19.15;75.89
81913;BME280;71377;50.698;7.164;2023-07-24T02:36:22;99948.19;;;19.04;76.05
81913;BME280;71377;50.698;7.164;2023-07-24T02:38:48;99935.50;;;18.97;76.41
81913;BME280;71377;50.698;7.164;2023-07-24T02:41:15;99927.81;;;19.14;76.64
81913;BME280;71377;50.698;7.164;2023-07-24T02:43:41;99927.97;;;19.02;76.27
81913;BME280;71377;50.698;7.164;2023-07-24T02:46:08;99923.41;;;18.92;76.38
81913;BME280;71377;50.698;7.164;2023-07-24T02:48:35;99926.19;;;18.91;76.04
81913;BME280;71377;50.698;7.164;2023-07-24T02:51:01;99918.81;;;18.95;76.39
81913;BME280;71377;50.698;7.164;2023-07-24T02:53:27;99905.75;;;18.91;76.46
81913;BME280;71377;50.698;7.164;2023-07-24T02:55:54;99898.81;;;19.00;76.62
81913;BME280;71377;50.698;7.164;2023-07-24T02:58:21;99893.75;;;18.97;76.62
81913;BME280;71377;50.698;7.164;2023-07-24T03:00:47;99891.44;;;19.04;76.05
81913;BME280;71377;50.698;7.164;2023-07-24T03:03:14;99901.59;;;18.99;75.71
81913;BME280;71377;50.698;7.164;2023-07-24T03:05:40;99890.03;;;18.88;76.04
81913;BME280;71377;50.698;7.164;2023-07-24T03:08:07;99893.66;;;18.87;76.07
81913;BME280;71377;50.698;7.164;2023-07-24T03:10:33;99885.47;;;18.79;76.19
81913;BME280;71377;50.698;7.164;2023-07-24T03:13:00;99882.19;;;18.76;76.40
81913;BME280;71377;50.698;7.164;2023-07-24T03:15:26;99892.25;;;18.72;76.24
81913;BME280;71377;50.698;7.164;2023-07-24T03:17:52;99890.31;;;18.63;76.23
81913;BME280;71377;50.698;7.164;2023-07-24T03:20:19;99881.13;;;18.56;76.04
81913;BME280;71377;50.698;7.164;2023-07-24T03:22:47;99877.34;;;18.58;75.76
81913;BME280;71377;50.698;7.164;2023-07-24T03:25:13;99881.13;;;18.56;75.54
81913;BME280;71377;50.698;7.164;2023-07-24T03:27:40;99855.75;;;18.52;75.43
81913;BME280;71377;50.698;7.164;2023-07-24T03:30:07;99858.19;;;18.44;75.20
81913;BME280;71377;50.698;7.164;2023-07-24T03:32:33;99861.81;;;18.43;75.08
81913;BME280;71377;50.698;7.164;2023-07-24T03:35:00;99869.78;;;18.43;75.02
81913;BME280;71377;50.698;7.164;2023-07-24T03:37:26;99865.41;;;18.42;75.21
81913;BME280;71377;50.698;7.164;2023-07-24T03:39:53;99847.94;;;18.28;74.60
81913;BME280;71377;50.698;7.164;2023-07-24T03:42:27;99862.66;;;18.32;74.53
81913;BME280;71377;50.698;7.164;2023-07-24T03:44:54;99862.41;;;18.46;74.80
81913;BME280;71377;50.698;7.164;2023-07-24T03:47:21;99867.13;;;18.43;74.70
81913;BME280;71377;50.698;7.164;2023-07-24T03:49:48;99851.06;;;18.44;74.71
81913;BME280;71377;50.698;7.164;2023-07-24T03:52:14;99849.47;;;18.53;74.74
81913;BME280;71377;50.698;7.164;2023-07-24T03:54:41;99852.34;;;18.50;74.92
81913;BME280;71377;50.698;7.164;2023-07-24T03:57:07;99849.25;;;18.45;74.72
81913;BME280;71377;50.698;7.164;2023-07-24T03:59:34;99848.41;;;18.44;74.85
81913;BME280;71377;50.698;7.164;2023-07-24T04:02:00;99854.06;;;18.40;74.75
81913;BME280;71377;50.698;7.164;2023-07-24T04:04:27;99846.34;;;18.36;74.29
81913;BME280;71377;50.698;7.164;2023-07-24T04:06:54;99845.25;;;18.39;74.68
81913;BME280;71377;50.698;7.164;2023-07-24T04:09:20;99847.06;;;18.39;74.54
81913;BME280;71377;50.698;7.164;2023-07-24T04:11:47;99849.94;;;18.47;74.83
81913;BME280;71377;50.698;7.164;2023-07-24T04:14:13;99847.50;;;18.55;74.90
81913;BME280;71377;50.698;7.164;2023-07-24T04:16:40;99854.41;;;18.57;74.83
81913;BME280;71377;50.698;7.164;2023-07-24T04:19:06;99861.53;;;18.57;74.96
81913;BME280;71377;50.698;7.164;2023-07-24T04:21:33;99859.13;;;18.54;75.02
81913;BME280;71377;50.698;7.164;2023-07-24T04:23:59;99867.56;;;18.59;74.80
81913;BME280;71377;50.698;7.164;2023-07-24T04:26:26;99858.66;;;18.60;75.12
81913;BME280;71377;50.698;7.164;2023-07-24T04:28:53;99859.00;;;18.78;75.32
81913;BME280;71377;50.698;7.164;2023-07-24T04:31:19;99867.47;;;18.72;75.17
81913;BME280;71377;50.698;7.164;2023-07-24T04:33:46;99876.28;;;18.72;75.23
81913;BME280;71377;50.698;7.164;2023-07-24T04:36:13;99873.03;;;18.69;75.35
81913;BME280;71377;50.698;7.164;2023-07-24T04:38:43;99888.25;;;18.67;74.87
81913;BME280;71377;50.698;7.164;2023-07-24T04:41:10;99883.69;;;18.69;74.83
81913;BME280;71377;50.698;7.164;2023-07-24T04:43:36;99882.31;;;18.74;75.27
81913;BME280;71377;50.698;7.164;2023-07-24T04:46:03;99878.91;;;18.83;75.47
81913;BME280;71377;50.698;7.164;2023-07-24T04:48:30;99875.53;;;18.81;75.30
81913;BME280;71377;50.698;7.164;2023-07-24T04:50:56;99880.72;;;18.83;75.08
81913;BME280;71377;50.698;7.164;2023-07-24T04:53:23;99881.34;;;18.86;74.96
81913;BME280;71377;50.698;7.164;2023-07-24T04:55:49;99887.50;;;18.87;75.07
81913;BME280;71377;50.698;7.164;2023-07-24T04:58:16;99888.09;;;18.90;74.81
81913;BME280;71377;50.698;7.164;2023-07-24T05:00:44;99888.78;;;18.92;75.02
81913;BME280;71377;50.698;7.164;2023-07-24T05:03:10;99878.91;;;18.95;74.87
81913;BME280;71377;50.698;7.164;2023-07-24T05:05:37;99876.31;;;19.04;74.95
81913;BME280;71377;50.698;7.164;2023-07-24T05:08:08;99889.22;;;19.20;74.99
81913;BME280;71377;50.698;7.164;2023-07-24T05:10:36;99884.88;;;19.08;74.85
81913;BME280;71377;50.698;7.164;2023-07-24T05:13:03;99877.78;;;18.97;74.69
81913;BME280;71377;50.698;7.164;2023-07-24T05:15:29;99886.13;;;18.92;75.14
81913;BME280;71377;50.698;7.164;2023-07-24T05:17:56;99885.78;;;18.97;74.89
81913;BME280;71377;50.698;7.164;2023-07-24T05:20:22;99889.28;;;18.98;74.93
81913;BME280;71377;50.698;7.164;2023-07-24T05:22:49;99886.97;;;19.04;74.95
81913;BME280;71377;50.698;7.164;2023-07-24T05:25:15;99889.50;;;19.06;75.02
81913;BME280;71377;50.698;7.164;2023-07-24T05:27:41;99894.81;;;19.06;75.00
81913;BME280;71377;50.698;7.164;2023-07-24T05:30:11;99899.44;;;19.04;74.75
81913;BME280;71377;50.698;7.164;2023-07-24T05:32:37;99912.25;;;18.99;74.70
81913;BME280;71377;50.698;7.164;2023-07-24T05:35:04;99906.56;;;19.03;74.72
81913;BME280;71377;50.698;7.164;2023-07-24T05:37:31;99915.41;;;19.04;74.82
81913;BME280;71377;50.698;7.164;2023-07-24T05:39:57;99920.28;;;19.19;74.83
81913;BME280;71377;50.698;7.164;2023-07-24T05:42:24;99921.88;;;19.43;74.61
81913;BME280;71377;50.698;7.164;2023-07-24T05:44:51;99920.69;;;19.68;74.49
81913;BME280;71377;50.698;7.164;2023-07-24T05:47:17;99918.34;;;19.95;74.73
81913;BME280;71377;50.698;7.164;2023-07-24T05:49:43;99923.16;;;20.32;74.33
81913;BME280;71377;50.698;7.164;2023-07-24T05:52:10;99917.78;;;20.53;74.11
81913;BME280;71377;50.698;7.164;2023-07-24T05:54:38;99913.78;;;20.78;73.79
81913;BME280;71377;50.698;7.164;2023-07-24T05:57:05;99900.47;;;20.87;72.73
81913;BME280;71377;50.698;7.164;2023-07-24T05:59:32;99918.84;;;20.81;73.42
81913;BME280;71377;50.698;7.164;2023-07-24T06:01:58;99917.88;;;20.82;72.87
81913;BME280;71377;50.698;7.164;2023-07-24T06:04:25;99927.84;;;20.80;72.53
81913;BME280;71377;50.698;7.164;2023-07-24T06:06:51;99922.66;;;20.78;73.62
81913;BME280;71377;50.698;7.164;2023-07-24T06:09:18;99922.34;;;20.72;73.08
81913;BME280;71377;50.698;7.164;2023-07-24T06:11:47;99916.56;;;20.67;73.38
81913;BME280;71377;50.698;7.164;2023-07-24T06:14:13;99921.81;;;20.78;73.22
81913;BME280;71377;50.698;7.164;2023-07-24T06:16:40;99917.88;;;20.82;73.03
81913;BME280;71377;50.698;7.164;2023-07-24T06:19:06;99925.94;;;21.21;72.41
81913;BME280;71377;50.698;7.164;2023-07-24T06:21:33;99928.34;;;21.43;72.42
81913;BME280;71377;50.698;7.164;2023-07-24T06:23:59;99926.38;;;21.64;71.70
81913;BME280;71377;50.698;7.164;2023-07-24T06:26:26;99921.59;;;21.68;71.43
81913;BME280;71377;50.698;7.164;2023-07-24T06:28:53;99907.81;;;21.72;71.20
81913;BME280;71377;50.698;7.164;2023-07-24T06:31:22;99914.56;;;21.67;71.29
81913;BME280;71377;50.698;7.164;2023-07-24T06:33:48;99916.16;;;21.97;71.02
81913;BME280;71377;50.698;7.164;2023-07-24T06:36:14;99902.84;;;22.34;69.60
81913;BME280;71377;50.698;7.164;2023-07-24T06:38:41;99900.28;;;22.42;69.89
81913;BME280;71377;50.698;7.164;2023-07-24T06:41:09;99905.75;;;22.41;69.66
81913;BME280;71377;50.698;7.164;2023-07-24T06:43:37;99900.03;;;22.36;69.42
81913;BME280;71377;50.698;7.164;2023-07-24T06:46:04;99908.34;;;22.60;68.27
81913;BME280;71377;50.698;7.164;2023-07-24T06:48:30;99916.19;;;22.71;68.64
81913;BME280;71377;50.698;7.164;2023-07-24T06:50:57;99908.19;;;22.62;69.82
81913;BME280;71377;50.698;7.164;2023-07-24T06:53:23;99905.69;;;22.60;69.23
81913;BME280;71377;50.698;7.164;2023-07-24T06:55:50;99899.50;;;22.50;68.58
81913;BME280;71377;50.698;7.164;2023-07-24T06:58:17;99897.28;;;22.18;70.19
81913;BME280;71377;50.698;7.164;2023-07-24T07:00:43;99901.75;;;22.27;69.46
81913;BME280;71377;50.698;7.164;2023-07-24T07:03:10;99897.78;;;22.31;69.42
81913;BME280;71377;50.698;7.164;2023-07-24T07:05:37;99895.81;;;22.33;70.06
81913;BME280;71377;50.698;7.164;2023-07-24T07:08:03;99891.41;;;22.42;69.36
81913;BME280;71377;50.698;7.164;2023-07-24T07:10:33;99891.78;;;22.47;69.61
81913;BME280;71377;50.698;7.164;2023-07-24T07:13:01;99882.38;;;22.70;68.39
81913;BME280;71377;50.698;7.164;2023-07-24T07:15:28;99883.06;;;22.45;68.10
81913;BME280;71377;50.698;7.164;2023-07-24T07:17:54;99871.56;;;22.35;68.80
81913;BME280;71377;50.698;7.164;2023-07-24T07:20:21;99876.56;;;22.47;67.67
81913;BME280;71377;50.698;7.164;2023-07-24T07:22:47;99869.19;;;22.59;68.68
81913;BME280;71377;50.698;7.164;2023-07-24T07:25:14;99869.19;;;22.59;68.13
81913;BME280;71377;50.698;7.164;2023-07-24T07:27:40;99870.88;;;22.60;68.80
81913;BME280;71377;50.698;7.164;2023-07-24T07:30:07;99874.94;;;22.37;68.67
81913;BME280;71377;50.698;7.164;2023-07-24T07:32:33;99877.56;;;22.19;67.78
81913;BME280;71377;50.698;7.164;2023-07-24T07:35:00;99870.06;;;22.22;68.46
81913;BME280;71377;50.698;7.164;2023-07-24T07:37:26;99861.41;;;22.38;68.52
81913;BME280;71377;50.698;7.164;2023-07-24T07:39:53;99854.91;;;22.68;67.39
81913;BME280;71377;50.698;7.164;2023-07-24T07:42:19;99845.97;;;22.50;67.85
81913;BME280;71377;50.698;7.164;2023-07-24T07:44:46;99842.84;;;22.37;67.81
81913;BME280;71377;50.698;7.164;2023-07-24T07:47:12;99831.81;;;22.40;67.30
81913;BME280;71377;50.698;7.164;2023-07-24T07:49:39;99835.00;;;22.25;68.03
81913;BME280;71377;50.698;7.164;2023-07-24T07:52:07;99833.03;;;22.27;68.42
81913;BME280;71377;50.698;7.164;2023-07-24T07:54:34;99840.06;;;22.28;66.86
81913;BME280;71377;50.698;7.164;2023-07-24T07:57:01;99835.00;;;22.25;68.02
81913;BME280;71377;50.698;7.164;2023-07-24T07:59:27;99849.56;;;22.41;68.32
81913;BME280;71377;50.698;7.164;2023-07-24T08:01:53;99859.34;;;22.60;67.74
81913;BME280;71377;50.698;7.164;2023-07-24T08:04:20;99871.09;;;22.67;67.64
81913;BME280;71377;50.698;7.164;2023-07-24T08:06:46;99861.84;;;22.89;67.37
81913;BME280;71377;50.698;7.164;2023-07-24T08:09:13;99840.72;;;23.03;65.91
81913;BME280;71377;50.698;7.164;2023-07-24T08:11:40;99853.28;;;23.03;65.74
81913;BME280;71377;50.698;7.164;2023-07-24T08:14:06;99844.50;;;23.19;65.40
81913;BME280;71377;50.698;7.164;2023-07-24T08:16:33;99848.94;;;23.28;63.96
81913;BME280;71377;50.698;7.164;2023-07-24T08:19:00;99855.47;;;22.90;65.32
81913;BME280;71377;50.698;7.164;2023-07-24T08:21:27;99858.31;;;22.88;65.62
81913;BME280;71377;50.698;7.164;2023-07-24T08:23:54;99857.16;;;22.91;64.84
81913;BME280;71377;50.698;7.164;2023-07-24T08:26:20;99847.03;;;22.84;65.62
81913;BME280;71377;50.698;7.164;2023-07-24T08:28:47;99839.56;;;23.06;64.41
81913;BME280;71377;50.698;7.164;2023-07-24T08:31:13;99838.16;;;23.02;63.75
81913;BME280;71377;50.698;7.164;2023-07-24T08:33:40;99838.41;;;22.91;63.12
81913;BME280;71377;50.698;7.164;2023-07-24T08:36:07;99836.41;;;23.28;63.71
81913;BME280;71377;50.698;7.164;2023-07-24T08:38:35;99830.34;;;23.26;63.24
81913;BME280;71377;50.698;7.164;2023-07-24T08:43:29;99826.00;;;23.25;63.61
81913;BME280;71377;50.698;7.164;2023-07-24T08:45:58;99829.78;;;23.40;63.05
81913;BME280;71377;50.698;7.164;2023-07-24T08:48:30;99826.16;;;23.50;62.37
81913;BME280;71377;50.698;7.164;2023-07-24T08:50:59;99823.69;;;23.74;62.26
81913;BME280;71377;50.698;7.164;2023-07-24T08:53:26;99819.47;;;24.06;60.44
81913;BME280;71377;50.698;7.164;2023-07-24T08:55:55;99823.53;;;24.10;59.73
81913;BME280;71377;50.698;7.164;2023-07-24T08:58:22;99830.16;;;23.97;62.37
81913;BME280;71377;50.698;7.164;2023-07-24T09:00:48;99826.53;;;24.07;61.75
81913;BME280;71377;50.698;7.164;2023-07-24T09:03:18;99825.38;;;23.75;61.89
81913;BME280;71377;50.698;7.164;2023-07-24T09:05:45;99826.50;;;23.47;62.57
81913;BME280;71377;50.698;7.164;2023-07-24T09:08:13;99819.56;;;23.62;61.24
81913;BME280;71377;50.698;7.164;2023-07-24T09:10:40;99809.69;;;23.62;61.24
81913;BME280;71377;50.698;7.164;2023-07-24T09:13:07;99807.78;;;23.55;60.69
81913;BME280;71377;50.698;7.164;2023-07-24T09:15:43;99800.69;;;23.46;61.04
81913;BME280;71377;50.698;7.164;2023-07-24T09:18:10;99808.47;;;23.57;61.05
81913;BME280;71377;50.698;7.164;2023-07-24T09:20:43;99788.25;;;23.45;61.17
81913;BME280;71377;50.698;7.164;2023-07-24T09:23:12;99794.84;;;23.24;62.12
81913;BME280;71377;50.698;7.164;2023-07-24T09:25:45;99786.84;;;23.32;62.85
81913;BME280;71377;50.698;7.164;2023-07-24T09:28:16;99780.56;;;23.41;62.41
81913;BME280;71377;50.698;7.164;2023-07-24T09:30:58;99773.72;;;23.47;61.46
81913;BME280;71377;50.698;7.164;2023-07-24T09:33:40;99774.56;;;23.48;61.58
81913;BME280;71377;50.698;7.164;2023-07-24T09:36:08;99763.13;;;23.37;61.54
81913;BME280;71377;50.698;7.164;2023-07-24T09:38:40;99758.38;;;23.31;62.35
81913;BME280;71377;50.698;7.164;2023-07-24T09:41:08;99752.84;;;23.33;62.20
81913;BME280;71377;50.698;7.164;2023-07-24T09:43:38;99751.84;;;23.34;62.10
81913;BME280;71377;50.698;7.164;2023-07-24T09:46:07;99750.06;;;23.42;61.66
81913;BME280;71377;50.698;7.164;2023-07-24T09:48:35;99750.50;;;23.30;63.06
81913;BME280;71377;50.698;7.164;2023-07-24T09:51:06;99741.72;;;23.46;62.45
81913;BME280;71377;50.698;7.164;2023-07-24T09:53:42;99734.16;;;23.67;61.05
81913;BME280;71377;50.698;7.164;2023-07-24T09:56:10;99732.00;;;23.79;60.73
81913;BME280;71377;50.698;7.164;2023-07-24T09:58:38;99734.97;;;24.10;60.15
81913;BME280;71377;50.698;7.164;2023-07-24T10:01:06;99732.63;;;24.15;59.14
81913;BME280;71377;50.698;7.164;2023-07-24T10:03:37;99724.34;;;24.34;58.81
81913;BME280;71377;50.698;7.164;2023-07-24T10:06:08;99713.97;;;24.72;56.87
81913;BME280;71377;50.698;7.164;2023-07-24T10:08:40;99714.63;;;24.58;57.33
81913;BME280;71377;50.698;7.164;2023-07-24T10:11:09;99727.78;;;24.18;58.64
81913;BME280;71377;50.698;7.164;2023-07-24T10:13:37;99734.66;;;24.21;58.73
81913;BME280;71377;50.698;7.164;2023-07-24T10:16:04;99722.66;;;24.33;58.83
81913;BME280;71377;50.698;7.164;2023-07-24T10:18:44;99715.81;;;24.63;58.69
81913;BME280;71377;50.698;7.164;2023-07-24T10:21:12;99717.91;;;24.27;58.33
81913;BME280;71377;50.698;7.164;2023-07-24T10:23:44;99720.94;;;24.24;58.21
81913;BME280;71377;50.698;7.164;2023-07-24T10:26:12;99708.41;;;24.57;57.31
81913;BME280;71377;50.698;7.164;2023-07-24T10:28:41;99698.53;;;25.06;56.33
81913;BME280;71377;50.698;7.164;2023-07-24T10:31:22;99693.72;;;25.41;55.89
81913;BME280;71377;50.698;7.164;2023-07-24T10:33:50;99692.78;;;25.81;55.07
81913;BME280;71377;50.698;7.164;2023-07-24T10:36:19;99689.94;;;25.75;54.52
81913;BME280;71377;50.698;7.164;2023-07-24T10:38:51;99698.53;;;25.62;52.42
81913;BME280;71377;50.698;7.164;2023-07-24T10:41:17;99696.09;;;25.28;53.15
81913;BME280;71377;50.698;7.164;2023-07-24T10:43:49;99700.41;;;25.53;52.98
81913;BME280;71377;50.698;7.164;2023-07-24T10:46:18;99696.28;;;25.26;54.57
81913;BME280;71377;50.698;7.164;2023-07-24T10:48:50;99702.19;;;25.30;54.58
81913;BME280;71377;50.698;7.164;2023-07-24T10:51:17;99696.41;;;25.41;53.54
81913;BME280;71377;50.698;7.164;2023-07-24T10:53:47;99699.22;;;25.72;52.32
81913;BME280;71377;50.698;7.164;2023-07-24T10:56:15;99693.03;;;25.55;52.75
81913;BME280;71377;50.698;7.164;2023-07-24T10:58:43;99700.75;;;25.50;53.24
81913;BME280;71377;50.698;7.164;2023-07-24T11:01:09;99686.44;;;25.58;52.10
81913;BME280;71377;50.698;7.164;2023-07-24T11:03:41;99681.25;;;25.96;50.93
81913;BME280;71377;50.698;7.164;2023-07-24T11:06:16;99669.97;;;26.00;49.79
81913;BME280;71377;50.698;7.164;2023-07-24T11:08:51;99671.78;;;26.31;49.36
81913;BME280;71377;50.698;7.164;2023-07-24T11:11:18;99655.25;;;26.42;48.89
81913;BME280;71377;50.698;7.164;2023-07-24T11:13:44;99648.53;;;26.61;48.68
81913;BME280;71377;50.698;7.164;2023-07-24T11:16:11;99647.78;;;26.21;49.78
81913;BME280;71377;50.698;7.164;2023-07-24T11:18:45;99652.69;;;26.17;49.40
81913;BME280;71377;50.698;7.164;2023-07-24T11:21:20;99638.06;;;26.43;48.35
81913;BME280;71377;50.698;7.164;2023-07-24T11:23:51;99644.66;;;26.78;48.85
81913;BME280;71377;50.698;7.164;2023-07-24T11:26:19;99636.22;;;26.96;47.48
81913;BME280;71377;50.698;7.164;2023-07-24T11:28:47;99620.25;;;26.94;46.63
81913;BME280;71377;50.698;7.164;2023-07-24T11:31:13;99621.22;;;26.41;47.71
81913;BME280;71377;50.698;7.164;2023-07-24T11:33:41;99615.06;;;26.55;48.41
81913;BME280;71377;50.698;7.164;2023-07-24T11:36:09;99617.75;;;27.08;45.98
81913;BME280;71377;50.698;7.164;2023-07-24T11:38:36;99605.31;;;27.21;47.00
81913;BME280;71377;50.698;7.164;2023-07-24T11:41:05;99598.19;;;27.65;43.85
81913;BME280;71377;50.698;7.164;2023-07-24T11:43:32;99604.84;;;27.83;45.44
81913;BME280;71377;50.698;7.164;2023-07-24T11:45:58;99605.91;;;27.53;45.55
81913;BME280;71377;50.698;7.164;2023-07-24T11:48:25;99604.75;;;27.11;44.74
81913;BME280;71377;50.698;7.164;2023-07-24T11:50:53;99603.34;;;27.30;45.58
81913;BME280;71377;50.698;7.164;2023-07-24T11:53:27;99607.41;;;26.96;45.32
81913;BME280;71377;50.698;7.164;2023-07-24T11:55:58;99613.03;;;26.72;46.09
81913;BME280;71377;50.698;7.164;2023-07-24T11:58:26;99609.81;;;26.39;48.40
81913;BME280;71377;50.698;7.164;2023-07-24T12:00:53;99604.91;;;26.42;48.78
81913;BME280;71377;50.698;7.164;2023-07-24T12:03:24;99604.31;;;26.09;49.92
81913;BME280;71377;50.698;7.164;2023-07-24T12:05:52;99623.25;;;25.93;50.56
81913;BME280;71377;50.698;7.164;2023-07-24T12:08:21;99623.94;;;25.87;50.74
81913;BME280;71377;50.698;7.164;2023-07-24T12:10:50;99613.72;;;26.05;50.12
81913;BME280;71377;50.698;7.164;2023-07-24T12:13:16;99628.81;;;26.14;50.89
81913;BME280;71377;50.698;7.164;2023-07-24T12:15:47;99633.53;;;26.58;49.98
81913;BME280;71377;50.698;7.164;2023-07-24T12:18:14;99621.88;;;26.20;53.65
81913;BME280;71377;50.698;7.164;2023-07-24T12:20:41;99627.44;;;25.96;54.17
81913;BME280;71377;50.698;7.164;2023-07-24T12:23:07;99632.47;;;25.59;54.99
81913;BME280;71377;50.698;7.164;2023-07-24T12:25:34;99629.56;;;25.38;56.62
81913;BME280;71377;50.698;7.164;2023-07-24T12:28:00;99634.47;;;25.26;57.78
81913;BME280;71377;50.698;7.164;2023-07-24T12:30:27;99624.75;;;25.17;58.29
81913;BME280;71377;50.698;7.164;2023-07-24T12:32:54;99629.66;;;25.14;58.34
81913;BME280;71377;50.698;7.164;2023-07-24T12:35:20;99632.16;;;25.15;59.10
81913;BME280;71377;50.698;7.164;2023-07-24T12:37:48;99625.97;;;25.06;59.22
81913;BME280;71377;50.698;7.164;2023-07-24T12:40:14;99642.94;;;24.83;60.30
81913;BME280;71377;50.698;7.164;2023-07-24T12:42:41;99653.97;;;24.14;67.93
81913;BME280;71377;50.698;7.164;2023-07-24T12:45:08;99660.28;;;21.97;73.28
81913;BME280;71377;50.698;7.164;2023-07-24T12:47:35;99647.16;;;21.31;78.52
81913;BME280;71377;50.698;7.164;2023-07-24T12:50:01;99636.06;;;21.16;79.38
81913;BME280;71377;50.698;7.164;2023-07-24T12:52:33;99621.66;;;22.27;78.81
81913;BME280;71377;50.698;7.164;2023-07-24T12:55:00;99636.03;;;23.14;77.47
81913;BME280;71377;50.698;7.164;2023-07-24T12:57:28;99626.44;;;23.96;76.02
81913;BME280;71377;50.698;7.164;2023-07-24T12:59:55;99632.72;;;24.78;74.30
81913;BME280;71377;50.698;7.164;2023-07-24T13:02:21;99635.91;;;24.41;74.26
81913;BME280;71377;50.698;7.164;2023-07-24T13:04:48;99625.09;;;25.14;72.99